createdAt,value
2022-11-17T00:02:00.918Z,6.05
2022-11-17T00:04:30.772Z,7.07
2022-11-17T00:06:58.832Z,6.45
2022-11-17T00:09:26.280Z,6.25
2022-11-17T00:12:11.968Z,6.43
2022-11-17T00:14:41.457Z,5.93
2022-11-17T00:17:11.132Z,6.63
2022-11-17T00:19:57.628Z,5.03
2022-11-17T00:22:25.486Z,6.20
2022-11-17T00:24:52.489Z,6.90
2022-11-17T00:27:19.449Z,6.25
2022-11-17T00:29:46.444Z,6.15
2022-11-17T00:32:34.479Z,6.40
2022-11-17T00:35:02.146Z,5.40
2022-11-17T00:37:37.332Z,5.78
2022-11-17T00:40:08.133Z,5.90
2022-11-17T00:42:35.133Z,7.00
2022-11-17T00:45:02.142Z,7.53
2022-11-17T00:47:29.156Z,6.50
2022-11-17T00:49:56.148Z,6.70
2022-11-17T00:52:23.147Z,5.75
2022-11-17T00:54:50.125Z,6.45
2022-11-17T00:57:17.139Z,6.90
2022-11-17T00:59:44.115Z,5.68
2022-11-17T01:02:11.117Z,6.90
2022-11-17T01:04:38.153Z,7.40
2022-11-17T01:07:05.109Z,6.15
2022-11-17T01:09:32.106Z,6.97
2022-11-17T01:11:59.115Z,6.15
2022-11-17T01:14:28.543Z,6.13
2022-11-17T01:16:56.030Z,7.18
2022-11-17T01:19:24.373Z,6.78
2022-11-17T01:21:51.578Z,6.90
2022-11-17T01:24:18.667Z,6.38
2022-11-17T01:26:46.594Z,6.10
2022-11-17T01:29:17.453Z,6.20
2022-11-17T01:31:45.643Z,7.32
2022-11-17T01:34:13.290Z,5.97
2022-11-17T01:37:01.610Z,6.57
2022-11-17T01:39:30.630Z,5.82
2022-11-17T01:41:58.765Z,6.75
2022-11-17T01:44:53.801Z,6.70
2022-11-17T01:47:37.393Z,6.18
2022-11-17T01:50:27.539Z,6.20
2022-11-17T01:52:57.464Z,6.30
2022-11-17T01:55:29.342Z,7.40
2022-11-17T01:58:05.861Z,7.15
2022-11-17T02:00:32.888Z,7.20
2022-11-17T02:03:00.400Z,7.05
2022-11-17T02:05:40.428Z,6.22
2022-11-17T02:08:16.091Z,6.82
2022-11-17T02:10:50.198Z,6.90
2022-11-17T02:13:20.390Z,7.25
2022-11-17T02:15:47.489Z,7.55
2022-11-17T02:18:16.691Z,7.38
2022-11-17T02:20:51.436Z,6.97
2022-11-17T02:23:53.481Z,6.78
2022-11-17T02:26:42.221Z,6.72
2022-11-17T02:29:36.110Z,7.07
2022-11-17T02:32:16.672Z,6.20
2022-11-17T02:34:47.510Z,6.22
2022-11-17T02:37:40.965Z,6.63
2022-11-17T02:40:16.724Z,6.47
2022-11-17T02:43:07.641Z,6.40
2022-11-17T02:45:40.179Z,6.72
2022-11-17T02:48:14.138Z,6.82
2022-11-17T02:50:44.747Z,6.78
2022-11-17T02:53:13.341Z,6.82
2022-11-17T02:55:40.930Z,6.65
2022-11-17T02:58:12.363Z,6.70
2022-11-17T03:01:03.092Z,6.75
2022-11-17T03:03:59.536Z,6.95
2022-11-17T03:06:36.186Z,6.75
2022-11-17T03:09:44.341Z,6.78
2022-11-17T03:12:47.037Z,7.35
2022-11-17T03:15:33.885Z,7.07
2022-11-17T03:18:06.931Z,7.57
2022-11-17T03:20:40.225Z,6.95
2022-11-17T03:23:17.696Z,8.07
2022-11-17T03:25:49.588Z,7.78
2022-11-17T03:28:21.116Z,7.88
2022-11-17T03:30:51.039Z,7.95
2022-11-17T03:33:22.048Z,6.35
2022-11-17T03:35:55.154Z,7.20
2022-11-17T03:38:26.909Z,7.72
2022-11-17T03:40:57.028Z,7.10
2022-11-17T03:43:29.719Z,7.28
2022-11-17T03:46:06.568Z,8.15
2022-11-17T03:49:02.836Z,8.80
2022-11-17T03:51:33.348Z,6.95
2022-11-17T03:54:01.161Z,8.25
2022-11-17T03:57:02.989Z,7.43
2022-11-17T03:59:43.349Z,6.90
2022-11-17T04:02:18.368Z,8.10
2022-11-17T04:05:04.307Z,6.95
2022-11-17T04:07:37.517Z,8.07
2022-11-17T04:10:05.564Z,7.85
2022-11-17T04:12:51.144Z,7.10
2022-11-17T04:15:36.744Z,7.10
2022-11-17T04:18:04.872Z,8.27
2022-11-17T04:20:36.100Z,8.73
2022-11-17T04:23:12.289Z,7.75
2022-11-17T04:26:04.277Z,7.97
2022-11-17T04:28:39.444Z,7.32
2022-11-17T04:31:27.455Z,8.73
2022-11-17T04:33:57.777Z,7.70
2022-11-17T04:36:27.516Z,7.15
2022-11-17T04:38:56.352Z,8.07
2022-11-17T04:41:43.997Z,8.40
2022-11-17T04:44:15.678Z,7.30
2022-11-17T04:46:46.476Z,8.15
2022-11-17T04:49:14.942Z,8.05
2022-11-17T04:51:42.766Z,8.20
2022-11-17T04:54:12.047Z,8.55
2022-11-17T04:56:39.272Z,8.15
2022-11-17T04:59:07.249Z,7.38
2022-11-17T05:01:34.903Z,8.55
2022-11-17T05:04:04.493Z,7.63
2022-11-17T05:06:51.738Z,8.55
2022-11-17T05:09:18.727Z,7.45
2022-11-17T05:12:04.172Z,7.35
2022-11-17T05:14:31.354Z,6.60
2022-11-17T05:17:10.768Z,6.38
2022-11-17T05:19:40.248Z,6.93
2022-11-17T05:22:28.666Z,7.60
2022-11-17T05:24:55.973Z,6.88
2022-11-17T05:27:24.208Z,8.25
2022-11-17T05:29:51.452Z,7.25
2022-11-17T05:32:18.661Z,7.68
2022-11-17T05:34:45.773Z,8.32
2022-11-17T05:37:12.844Z,8.00
2022-11-17T05:39:39.824Z,7.00
2022-11-17T05:42:06.775Z,7.68
2022-11-17T05:44:33.782Z,7.68
2022-11-17T05:47:01.016Z,7.55
2022-11-17T05:49:27.996Z,7.15
2022-11-17T05:51:54.973Z,8.38
2022-11-17T05:54:22.031Z,7.85
2022-11-17T05:56:53.316Z,8.18
2022-11-17T05:59:34.474Z,9.00
2022-11-17T06:02:06.404Z,8.40
2022-11-17T06:04:33.577Z,9.27
2022-11-17T06:07:02.037Z,8.93
2022-11-17T06:09:32.898Z,10.50
2022-11-17T06:12:05.522Z,10.07
2022-11-17T06:14:35.647Z,8.10
2022-11-17T06:17:11.776Z,8.52
2022-11-17T06:19:46.094Z,8.13
2022-11-17T06:22:13.785Z,8.20
2022-11-17T06:24:45.396Z,7.88
2022-11-17T06:27:15.256Z,7.00
2022-11-17T06:29:44.832Z,7.45
2022-11-17T06:32:17.178Z,7.95
2022-11-17T06:34:49.112Z,7.72
2022-11-17T06:37:19.054Z,8.10
2022-11-17T06:39:46.146Z,7.03
2022-11-17T06:42:13.368Z,6.95
2022-11-17T06:44:40.311Z,7.18
2022-11-17T06:47:07.222Z,6.75
2022-11-17T06:49:34.202Z,7.60
2022-11-17T06:52:01.178Z,7.45
2022-11-17T06:54:28.131Z,7.30
2022-11-17T06:56:55.621Z,7.50
2022-11-17T06:59:22.635Z,7.72
2022-11-17T07:01:49.590Z,7.90
2022-11-17T07:04:16.814Z,6.47
2022-11-17T07:06:43.793Z,7.45
2022-11-17T07:09:10.764Z,7.03
2022-11-17T07:11:37.860Z,6.70
2022-11-17T07:14:04.830Z,8.48
2022-11-17T07:16:32.818Z,7.95
2022-11-17T07:19:03.529Z,8.73
2022-11-17T07:21:31.293Z,8.27
2022-11-17T07:23:58.384Z,13.88
2022-11-17T07:26:25.296Z,14.27
2022-11-17T07:28:52.281Z,10.15
2022-11-17T07:31:19.268Z,8.63
2022-11-17T07:33:46.394Z,9.38
2022-11-17T07:36:17.107Z,8.60
2022-11-17T07:38:44.208Z,8.10
2022-11-17T07:41:13.851Z,12.52
2022-11-17T07:43:40.958Z,14.60
2022-11-17T07:46:11.206Z,12.02
2022-11-17T07:48:39.315Z,10.57
2022-11-17T07:51:07.047Z,11.07
2022-11-17T07:53:35.382Z,10.25
2022-11-17T07:56:07.267Z,10.05
2022-11-17T07:58:34.704Z,11.15
2022-11-17T08:01:10.311Z,10.68
2022-11-17T08:03:37.435Z,9.50
2022-11-17T08:06:05.965Z,10.05
2022-11-17T08:08:34.741Z,7.57
2022-11-17T08:11:03.797Z,8.57
2022-11-17T08:13:31.016Z,8.07
2022-11-17T08:16:01.658Z,7.25
2022-11-17T08:18:30.179Z,7.93
2022-11-17T08:21:07.522Z,7.53
2022-11-17T08:23:34.934Z,7.32
2022-11-17T08:26:03.746Z,7.60
2022-11-17T08:28:31.037Z,8.77
2022-11-17T08:31:01.996Z,6.93
2022-11-17T08:33:29.191Z,7.30
2022-11-17T08:36:00.806Z,7.95
2022-11-17T08:38:31.513Z,7.85
2022-11-17T08:41:04.162Z,8.43
2022-11-17T08:43:31.567Z,6.38
2022-11-17T08:45:58.658Z,8.18
2022-11-17T08:48:26.120Z,6.97
2022-11-17T08:50:53.210Z,8.32
2022-11-17T08:53:22.279Z,9.25
2022-11-17T08:55:50.421Z,9.20
2022-11-17T08:58:17.857Z,8.20
2022-11-17T09:00:47.591Z,9.27
2022-11-17T09:03:15.047Z,7.68
2022-11-17T09:05:44.965Z,8.60
2022-11-17T09:08:43.860Z,8.32
2022-11-17T09:11:08.636Z,7.03
2022-11-17T09:13:36.415Z,8.55
2022-11-17T09:16:09.364Z,9.02
2022-11-17T09:18:38.388Z,8.60
2022-11-17T09:21:09.168Z,8.73
2022-11-17T09:23:36.808Z,9.15
2022-11-17T09:26:06.648Z,8.50
2022-11-17T09:28:34.183Z,8.27
2022-11-17T09:31:11.161Z,8.13
2022-11-17T09:33:38.484Z,9.70
2022-11-17T09:36:07.589Z,9.25
2022-11-17T09:38:36.253Z,9.85
2022-11-17T09:41:33.097Z,10.25
2022-11-17T09:44:29.554Z,9.25
2022-11-17T09:47:10.589Z,9.75
2022-11-17T09:49:46.572Z,9.20
2022-11-17T09:52:50.642Z,9.68
2022-11-17T09:55:34.471Z,9.82
2022-11-17T09:58:09.002Z,9.02
2022-11-17T10:00:38.893Z,10.20
2022-11-17T10:03:19.192Z,9.50
2022-11-17T10:05:47.235Z,9.45
2022-11-17T10:08:20.824Z,9.57
2022-11-17T10:10:50.421Z,8.90
2022-11-17T10:13:32.164Z,8.60
2022-11-17T10:16:07.034Z,9.20
2022-11-17T10:18:39.058Z,8.73
2022-11-17T10:21:07.786Z,9.68
2022-11-17T10:23:42.780Z,8.48
2022-11-17T10:26:15.650Z,8.30
2022-11-17T10:28:43.287Z,8.73
2022-11-17T10:31:18.741Z,9.00
2022-11-17T10:33:51.907Z,8.65
2022-11-17T10:36:27.485Z,7.28
2022-11-17T10:38:56.608Z,8.38
2022-11-17T10:41:40.986Z,8.77
2022-11-17T10:44:25.749Z,9.07
2022-11-17T10:47:02.385Z,8.43
2022-11-17T10:49:34.877Z,7.70
2022-11-17T10:52:18.967Z,8.25
2022-11-17T10:54:46.142Z,7.82
2022-11-17T10:57:18.181Z,8.05
2022-11-17T10:59:58.005Z,9.35
2022-11-17T11:02:39.392Z,8.13
2022-11-17T11:05:14.402Z,8.23
2022-11-17T11:07:41.968Z,8.30
2022-11-17T11:10:20.267Z,6.93
2022-11-17T11:13:11.497Z,7.70
2022-11-17T11:15:38.884Z,8.15
2022-11-17T11:18:19.304Z,8.10
2022-11-17T11:21:13.362Z,8.95
2022-11-17T11:24:14.315Z,9.45
2022-11-17T11:27:18.006Z,9.05
2022-11-17T11:30:05.571Z,8.52
2022-11-17T11:32:38.365Z,9.00
2022-11-17T11:35:32.994Z,8.40
2022-11-17T11:38:15.328Z,7.45
2022-11-17T11:40:52.997Z,7.60
2022-11-17T11:44:01.658Z,8.45
2022-11-17T11:46:42.948Z,8.35
2022-11-17T11:49:33.245Z,8.43
2022-11-17T11:52:02.650Z,9.05
2022-11-17T11:54:38.222Z,8.73
2022-11-17T11:57:14.208Z,7.03
2022-11-17T12:00:02.439Z,8.30
2022-11-17T12:02:47.921Z,8.05
2022-11-17T12:05:26.446Z,8.95
2022-11-17T12:08:11.871Z,8.77
2022-11-17T12:11:00.898Z,7.55
2022-11-17T12:13:28.328Z,8.10
2022-11-17T12:16:27.823Z,9.05
2022-11-17T12:18:54.784Z,9.38
2022-11-17T12:21:29.333Z,9.10
2022-11-17T12:23:56.268Z,8.85
2022-11-17T12:26:29.850Z,8.55
2022-11-17T12:29:21.619Z,8.57
2022-11-17T12:31:50.722Z,7.28
2022-11-17T12:34:20.478Z,8.88
2022-11-17T12:37:18.998Z,9.63
2022-11-17T12:39:52.016Z,8.05
2022-11-17T12:42:19.009Z,8.38
2022-11-17T12:45:06.363Z,8.65
2022-11-17T12:47:36.258Z,9.82
2022-11-17T12:50:12.169Z,10.02
2022-11-17T12:53:01.128Z,8.80
2022-11-17T12:56:02.819Z,9.98
2022-11-17T12:58:42.813Z,8.75
2022-11-17T13:01:26.655Z,9.15
2022-11-17T13:04:17.143Z,10.52
2022-11-17T13:07:05.510Z,10.73
2022-11-17T13:09:35.207Z,11.82
2022-11-17T13:12:05.572Z,10.27
2022-11-17T13:14:34.929Z,9.07
2022-11-17T13:17:02.966Z,9.40
2022-11-17T13:19:41.725Z,9.05
2022-11-17T13:22:11.543Z,9.90
2022-11-17T13:24:41.025Z,9.15
2022-11-17T13:27:18.148Z,8.93
2022-11-17T13:29:45.421Z,8.80
2022-11-17T13:32:17.060Z,8.35
2022-11-17T13:34:50.037Z,8.63
2022-11-17T13:37:20.629Z,7.95
2022-11-17T13:39:58.359Z,8.40
2022-11-17T13:42:29.547Z,7.85
2022-11-17T13:44:59.838Z,7.97
2022-11-17T13:47:39.582Z,9.10
2022-11-17T13:50:26.248Z,7.75
2022-11-17T13:52:56.740Z,7.82
2022-11-17T13:55:25.176Z,7.40
2022-11-17T13:57:55.328Z,7.50
2022-11-17T14:00:22.870Z,6.78
2022-11-17T14:02:57.442Z,7.57
2022-11-17T14:05:26.799Z,7.28
2022-11-17T14:07:57.033Z,7.40
2022-11-17T14:10:34.040Z,8.15
2022-11-17T14:13:01.015Z,7.68
2022-11-17T14:15:31.187Z,7.35
2022-11-17T14:18:00.534Z,8.75
2022-11-17T14:20:33.715Z,7.13
2022-11-17T14:23:08.771Z,6.70
2022-11-17T14:25:41.619Z,7.47
2022-11-17T14:28:19.579Z,7.88
2022-11-17T14:30:53.992Z,7.13
2022-11-17T14:33:21.651Z,7.15
2022-11-17T14:35:55.938Z,7.95
2022-11-17T14:38:23.739Z,8.00
2022-11-17T14:40:52.349Z,7.22
2022-11-17T14:43:21.434Z,7.75
2022-11-17T14:45:49.475Z,8.02
2022-11-17T14:48:20.362Z,8.70
2022-11-17T14:50:48.669Z,7.90
2022-11-17T14:53:15.671Z,8.45
2022-11-17T14:55:42.697Z,8.30
2022-11-17T14:58:10.289Z,7.47
2022-11-17T15:00:37.704Z,7.82
2022-11-17T15:03:04.865Z,8.65
2022-11-17T15:05:32.414Z,7.80
2022-11-17T15:07:59.559Z,7.97
2022-11-17T15:10:26.570Z,8.57
2022-11-17T15:12:53.589Z,8.63
2022-11-17T15:15:20.648Z,8.50
2022-11-17T15:17:47.638Z,8.50
2022-11-17T15:20:14.818Z,9.88
2022-11-17T15:22:41.888Z,9.15
2022-11-17T15:25:09.708Z,8.93
2022-11-17T15:27:36.698Z,9.18
2022-11-17T15:30:04.640Z,8.52
2022-11-17T15:32:32.351Z,8.07
2022-11-17T15:34:59.317Z,8.20
2022-11-17T15:37:26.378Z,8.13
2022-11-17T15:39:54.190Z,9.10
2022-11-17T15:42:21.197Z,8.20
2022-11-17T15:44:48.236Z,10.48
2022-11-17T15:47:15.206Z,8.77
2022-11-17T15:49:42.243Z,8.95
2022-11-17T15:52:09.177Z,8.70
2022-11-17T15:54:36.214Z,9.20
2022-11-17T15:57:03.440Z,8.02
2022-11-17T15:59:30.577Z,7.68
2022-11-17T16:01:57.623Z,8.35
2022-11-17T16:04:24.568Z,8.23
2022-11-17T16:06:51.787Z,9.43
2022-11-17T16:09:19.014Z,8.75
2022-11-17T16:11:47.077Z,9.02
2022-11-17T16:14:15.501Z,9.95
2022-11-17T16:16:43.817Z,9.35
2022-11-17T16:19:10.890Z,9.52
2022-11-17T16:21:37.945Z,9.55
2022-11-17T16:24:05.507Z,9.48
2022-11-17T16:26:32.588Z,9.25
2022-11-17T16:29:01.978Z,8.48
2022-11-17T16:31:32.358Z,9.10
2022-11-17T16:34:05.340Z,8.82
2022-11-17T16:36:37.505Z,9.00
2022-11-17T16:39:06.900Z,8.65
2022-11-17T16:41:36.460Z,9.05
2022-11-17T16:44:12.226Z,8.95
2022-11-17T16:46:43.382Z,8.85
2022-11-17T16:49:14.406Z,8.90
2022-11-17T16:51:50.232Z,9.73
2022-11-17T16:54:18.833Z,9.73
2022-11-17T16:56:46.681Z,9.27
2022-11-17T16:59:15.082Z,8.95
2022-11-17T17:01:42.616Z,9.20
2022-11-17T17:04:12.361Z,9.60
2022-11-17T17:06:43.218Z,9.43
2022-11-17T17:09:12.141Z,9.75
2022-11-17T17:11:39.729Z,9.45
2022-11-17T17:14:09.382Z,9.43
2022-11-17T17:16:38.098Z,9.77
2022-11-17T17:19:08.592Z,9.63
2022-11-17T17:21:37.491Z,9.98
2022-11-17T17:24:05.378Z,9.10
2022-11-17T17:26:34.230Z,10.10
2022-11-17T17:29:02.712Z,8.50
2022-11-17T17:31:39.237Z,9.98
2022-11-17T17:34:08.102Z,9.38
2022-11-17T17:36:36.636Z,8.93
2022-11-17T17:39:03.911Z,9.68
2022-11-17T17:41:38.162Z,9.55
2022-11-17T17:44:07.531Z,9.65
2022-11-17T17:46:39.547Z,8.35
2022-11-17T17:49:07.214Z,9.40
2022-11-17T17:51:43.712Z,9.70
2022-11-17T17:54:17.206Z,8.65
2022-11-17T17:56:45.475Z,9.85
2022-11-17T17:59:14.062Z,10.43
2022-11-17T18:01:42.816Z,10.23
2022-11-17T18:04:15.538Z,9.32
2022-11-17T18:06:48.401Z,10.43
2022-11-17T18:09:20.851Z,8.98
2022-11-17T18:11:51.190Z,9.27
2022-11-17T18:14:24.711Z,9.48
2022-11-17T18:16:54.185Z,9.48
2022-11-17T18:19:24.772Z,9.25
2022-11-17T18:21:55.102Z,9.57
2022-11-17T18:24:22.980Z,9.40
2022-11-17T18:26:50.896Z,10.35
2022-11-17T18:29:20.291Z,9.85
2022-11-17T18:31:48.897Z,10.13
2022-11-17T18:34:24.839Z,9.90
2022-11-17T18:36:56.349Z,8.63
2022-11-17T18:39:24.439Z,13.30
2022-11-17T18:41:52.378Z,11.68
2022-11-17T18:44:23.668Z,17.25
2022-11-17T18:46:51.926Z,16.80
2022-11-17T18:49:21.816Z,11.40
2022-11-17T18:51:51.033Z,10.75
2022-11-17T18:54:18.563Z,11.20
2022-11-17T18:56:46.455Z,11.45
2022-11-17T18:59:14.963Z,11.32
2022-11-17T19:01:45.180Z,10.30
2022-11-17T19:04:15.309Z,12.57
2022-11-17T19:06:44.047Z,11.80
2022-11-17T19:09:12.970Z,11.38
2022-11-17T19:11:40.846Z,10.30
2022-11-17T19:14:09.163Z,11.80
2022-11-17T19:16:44.898Z,11.82
2022-11-17T19:19:15.272Z,11.52
2022-11-17T19:21:43.694Z,12.23
2022-11-17T19:24:11.449Z,13.60
2022-11-17T19:26:39.493Z,12.68
2022-11-17T19:29:16.022Z,11.93
2022-11-17T19:31:44.876Z,12.50
2022-11-17T19:34:13.621Z,11.35
2022-11-17T19:36:41.682Z,11.85
2022-11-17T19:39:09.547Z,10.95
2022-11-17T19:41:40.223Z,10.40
2022-11-17T19:44:09.714Z,10.68
2022-11-17T19:46:37.975Z,11.15
2022-11-17T19:49:06.822Z,12.20
2022-11-17T19:51:40.390Z,12.75
2022-11-17T19:54:12.134Z,10.90
2022-11-17T19:56:39.893Z,10.93
2022-11-17T19:59:13.963Z,11.55
2022-11-17T20:01:44.009Z,12.23
2022-11-17T20:04:12.893Z,11.30
2022-11-17T20:06:41.658Z,10.85
2022-11-17T20:09:14.422Z,11.35
2022-11-17T20:11:43.340Z,12.13
2022-11-17T20:14:11.284Z,11.93
2022-11-17T20:16:39.016Z,12.00
2022-11-17T20:19:19.937Z,11.20
2022-11-17T20:21:48.125Z,11.75
2022-11-17T20:24:19.134Z,11.50
2022-11-17T20:26:46.937Z,10.85
2022-11-17T20:29:14.992Z,11.05
2022-11-17T20:31:43.227Z,12.15
2022-11-17T20:34:13.819Z,13.45
2022-11-17T20:36:41.582Z,11.88
2022-11-17T20:39:09.479Z,12.63
2022-11-17T20:41:37.461Z,11.23
2022-11-17T20:44:05.577Z,11.20
2022-11-17T20:46:32.946Z,12.32
2022-11-17T20:49:01.971Z,11.13
2022-11-17T20:51:29.455Z,11.18
2022-11-17T20:53:58.114Z,12.40
2022-11-17T20:56:25.353Z,11.88
2022-11-17T20:58:52.900Z,12.50
2022-11-17T21:01:23.312Z,12.20
2022-11-17T21:03:50.930Z,12.00
2022-11-17T21:06:19.895Z,12.40
2022-11-17T21:08:48.472Z,12.10
2022-11-17T21:11:37.974Z,11.85
2022-11-17T21:14:07.055Z,11.73
2022-11-17T21:16:35.374Z,12.00
2022-11-17T21:19:02.626Z,11.80
2022-11-17T21:21:29.964Z,12.48
2022-11-17T21:23:57.140Z,13.20
2022-11-17T21:26:24.956Z,10.93
2022-11-17T21:28:52.646Z,12.55
2022-11-17T21:31:23.960Z,12.75
2022-11-17T21:33:55.708Z,11.23
2022-11-17T21:36:24.483Z,11.68
2022-11-17T21:38:52.677Z,13.10
2022-11-17T21:41:25.507Z,12.55
2022-11-17T21:43:54.053Z,12.45
2022-11-17T21:46:24.662Z,11.65
2022-11-17T21:48:53.550Z,12.80
2022-11-17T21:51:22.922Z,12.27
2022-11-17T21:53:54.312Z,12.90
2022-11-17T21:56:21.992Z,11.63
2022-11-17T21:58:53.019Z,11.82
2022-11-17T22:01:20.145Z,12.40
2022-11-17T22:03:47.173Z,12.90
2022-11-17T22:06:18.511Z,13.20
2022-11-17T22:08:47.411Z,11.32
2022-11-17T22:11:36.521Z,12.05
2022-11-17T22:14:19.293Z,12.55
2022-11-17T22:16:55.352Z,12.88
2022-11-17T22:19:24.648Z,12.98
2022-11-17T22:21:53.684Z,13.98
2022-11-17T22:24:23.039Z,13.50
2022-11-17T22:26:51.746Z,13.35
2022-11-17T22:29:20.974Z,11.70
2022-11-17T22:31:49.787Z,11.45
2022-11-17T22:34:18.281Z,12.00
2022-11-17T22:36:45.430Z,11.25
2022-11-17T22:39:13.286Z,12.63
2022-11-17T22:41:40.301Z,13.15
2022-11-17T22:44:07.592Z,13.18
2022-11-17T22:46:35.555Z,12.32
2022-11-17T22:49:03.576Z,13.10
2022-11-17T22:51:49.417Z,14.20
2022-11-17T22:54:16.880Z,12.40
2022-11-17T22:56:43.856Z,13.70
2022-11-17T22:59:10.914Z,12.73
2022-11-17T23:01:38.344Z,14.60
2022-11-17T23:04:06.445Z,13.07
2022-11-17T23:06:33.510Z,12.90
2022-11-17T23:09:00.513Z,12.57
2022-11-17T23:11:43.370Z,12.88
2022-11-17T23:14:13.012Z,12.98
2022-11-17T23:16:40.570Z,13.32
2022-11-17T23:19:09.734Z,12.63
2022-11-17T23:21:36.850Z,13.52
2022-11-17T23:24:04.926Z,12.40
2022-11-17T23:26:31.925Z,14.15
2022-11-17T23:28:59.035Z,12.32
2022-11-17T23:31:28.326Z,13.15
2022-11-17T23:33:55.537Z,12.82
2022-11-17T23:36:23.711Z,12.38
2022-11-17T23:38:51.440Z,12.25
2022-11-17T23:41:20.557Z,11.77
2022-11-17T23:43:51.315Z,12.60
2022-11-17T23:46:20.544Z,11.90
2022-11-17T23:48:47.900Z,11.85
2022-11-17T23:51:23.915Z,10.93
2022-11-17T23:53:51.483Z,11.07
2022-11-17T23:56:22.436Z,11.57
2022-11-17T23:58:51.788Z,11.93
